createdAt,value
2022-10-30T00:01:48.087Z,2.17
2022-10-30T00:04:15.729Z,2.50
2022-10-30T00:06:43.079Z,2.43
2022-10-30T00:09:11.132Z,2.63
2022-10-30T00:11:41.339Z,2.20
2022-10-30T00:14:09.526Z,2.00
2022-10-30T00:16:36.898Z,1.77
2022-10-30T00:19:04.459Z,1.80
2022-10-30T00:21:31.828Z,2.10
2022-10-30T00:23:59.246Z,2.20
2022-10-30T00:26:28.061Z,2.03
2022-10-30T00:29:00.226Z,1.97
2022-10-30T00:31:27.659Z,2.20
2022-10-30T00:33:56.038Z,2.70
2022-10-30T00:36:23.965Z,1.90
2022-10-30T00:38:51.416Z,2.00
2022-10-30T00:41:22.546Z,2.17
2022-10-30T00:43:49.968Z,2.43
2022-10-30T00:46:20.735Z,2.27
2022-10-30T00:49:03.931Z,1.87
2022-10-30T00:51:32.588Z,2.07
2022-10-30T00:54:00.957Z,2.07
2022-10-30T00:56:28.382Z,2.40
2022-10-30T00:59:00.617Z,2.20
2022-10-30T01:01:28.972Z,1.73
2022-10-30T01:03:57.787Z,1.97
2022-10-30T01:06:25.827Z,2.50
2022-10-30T01:08:58.788Z,2.40
2022-10-30T01:11:27.980Z,2.13
2022-10-30T01:13:57.941Z,2.30
2022-10-30T01:16:35.100Z,1.87
2022-10-30T01:19:12.962Z,2.20
2022-10-30T01:21:49.108Z,2.00
2022-10-30T01:24:29.005Z,2.10
2022-10-30T01:27:25.821Z,2.20
2022-10-30T01:30:03.364Z,2.00
2022-10-30T01:32:53.659Z,2.43
2022-10-30T01:35:35.760Z,2.03
2022-10-30T01:38:22.331Z,2.53
2022-10-30T01:40:53.039Z,2.50
2022-10-30T01:43:20.741Z,2.20
2022-10-30T01:46:08.117Z,2.10
2022-10-30T01:48:35.497Z,2.57
2022-10-30T01:51:11.349Z,2.10
2022-10-30T01:53:57.659Z,1.87
2022-10-30T01:56:44.740Z,1.77
2022-10-30T01:59:15.958Z,1.93
2022-10-30T02:01:43.998Z,2.10
2022-10-30T02:04:12.954Z,2.07
2022-10-30T02:06:40.771Z,2.17
2022-10-30T02:09:09.661Z,2.20
2022-10-30T02:11:42.377Z,2.07
2022-10-30T02:14:10.523Z,1.93
2022-10-30T02:16:42.353Z,2.70
2022-10-30T02:19:09.741Z,1.90
2022-10-30T02:21:39.160Z,2.10
2022-10-30T02:24:06.822Z,2.60
2022-10-30T02:26:35.041Z,2.00
2022-10-30T02:29:02.669Z,1.90
2022-10-30T02:31:30.068Z,2.57
2022-10-30T02:33:57.418Z,2.20
2022-10-30T02:36:25.353Z,2.10
2022-10-30T02:38:55.244Z,2.17
2022-10-30T02:41:24.313Z,2.30
2022-10-30T02:43:55.527Z,2.13
2022-10-30T02:46:23.252Z,2.53
2022-10-30T02:48:50.673Z,2.40
2022-10-30T02:51:18.336Z,2.10
2022-10-30T02:53:47.444Z,2.50
2022-10-30T02:56:15.256Z,2.03
2022-10-30T02:58:43.720Z,2.30
2022-10-30T03:01:16.157Z,2.17
2022-10-30T03:03:44.390Z,2.20
2022-10-30T03:06:13.233Z,2.17
2022-10-30T03:08:40.584Z,2.37
2022-10-30T03:11:09.484Z,2.10
2022-10-30T03:13:37.488Z,2.50
2022-10-30T03:16:06.486Z,2.30
2022-10-30T03:18:34.162Z,2.70
2022-10-30T03:21:08.492Z,2.17
2022-10-30T03:23:36.220Z,2.43
2022-10-30T03:26:04.365Z,2.13
2022-10-30T03:28:36.743Z,1.90
2022-10-30T03:31:06.780Z,1.70
2022-10-30T03:33:35.032Z,2.00
2022-10-30T03:36:02.359Z,2.47
2022-10-30T03:38:29.952Z,1.93
2022-10-30T03:40:57.693Z,1.90
2022-10-30T03:43:25.379Z,2.37
2022-10-30T03:45:54.819Z,2.30
2022-10-30T03:48:23.967Z,2.13
2022-10-30T03:50:53.395Z,1.83
2022-10-30T03:53:23.137Z,1.90
2022-10-30T03:55:51.588Z,2.20
2022-10-30T03:58:18.910Z,2.17
2022-10-30T04:00:46.716Z,2.27
2022-10-30T04:03:14.238Z,2.40
2022-10-30T04:05:43.211Z,1.93
2022-10-30T04:08:12.819Z,2.13
2022-10-30T04:10:44.278Z,2.23
2022-10-30T04:13:13.261Z,2.13
2022-10-30T04:15:54.153Z,2.13
2022-10-30T04:18:25.255Z,2.10
2022-10-30T04:20:52.758Z,2.30
2022-10-30T04:23:20.861Z,1.77
2022-10-30T04:25:48.876Z,2.07
2022-10-30T04:28:16.315Z,1.70
2022-10-30T04:30:44.157Z,2.00
2022-10-30T04:33:12.596Z,1.90
2022-10-30T04:35:41.273Z,2.33
2022-10-30T04:38:20.711Z,2.33
2022-10-30T04:40:49.066Z,1.80
2022-10-30T04:43:17.159Z,2.27
2022-10-30T04:45:49.105Z,2.40
2022-10-30T04:48:17.878Z,2.13
2022-10-30T04:50:47.359Z,2.13
2022-10-30T04:53:26.758Z,2.40
2022-10-30T04:56:03.276Z,2.03
2022-10-30T04:58:31.999Z,2.00
2022-10-30T05:01:07.270Z,2.47
2022-10-30T05:03:35.844Z,2.63
2022-10-30T05:06:08.902Z,2.03
2022-10-30T05:08:36.502Z,2.07
2022-10-30T05:11:13.081Z,2.20
2022-10-30T05:13:40.491Z,2.40
2022-10-30T05:16:08.516Z,1.97
2022-10-30T05:18:36.073Z,2.63
2022-10-30T05:21:03.695Z,2.43
2022-10-30T05:23:31.077Z,2.83
2022-10-30T05:26:01.066Z,3.37
2022-10-30T05:28:29.302Z,2.33
2022-10-30T05:30:58.021Z,3.43
2022-10-30T05:33:45.661Z,2.77
2022-10-30T05:36:14.193Z,2.20
2022-10-30T05:38:42.332Z,2.33
2022-10-30T05:41:14.706Z,2.20
2022-10-30T05:43:42.206Z,2.23
2022-10-30T05:46:09.703Z,2.50
2022-10-30T05:48:38.490Z,2.20
2022-10-30T05:51:08.431Z,2.27
2022-10-30T05:53:38.069Z,2.23
2022-10-30T05:56:06.710Z,1.80
2022-10-30T05:58:35.749Z,2.13
2022-10-30T06:01:08.465Z,2.23
2022-10-30T06:03:41.452Z,2.57
2022-10-30T06:06:08.824Z,2.30
2022-10-30T06:08:36.488Z,1.87
2022-10-30T06:11:16.016Z,1.93
2022-10-30T06:13:45.439Z,2.93
2022-10-30T06:16:15.176Z,2.13
2022-10-30T06:19:01.152Z,1.80
2022-10-30T06:21:32.506Z,2.40
2022-10-30T06:24:25.734Z,2.40
2022-10-30T06:27:06.596Z,2.13
2022-10-30T06:29:34.563Z,1.83
2022-10-30T06:32:05.549Z,1.90
2022-10-30T06:34:40.111Z,2.37
2022-10-30T06:37:07.689Z,2.30
2022-10-30T06:39:35.436Z,1.80
2022-10-30T06:42:21.478Z,2.43
2022-10-30T06:45:13.237Z,2.00
2022-10-30T06:47:43.197Z,2.00
2022-10-30T06:50:15.929Z,2.30
2022-10-30T06:52:43.401Z,2.10
2022-10-30T06:55:11.043Z,2.30
2022-10-30T06:57:58.104Z,2.60
2022-10-30T07:00:46.181Z,2.30
2022-10-30T07:03:37.498Z,2.50
2022-10-30T07:06:05.152Z,2.07
2022-10-30T07:08:33.356Z,2.13
2022-10-30T07:11:00.916Z,2.00
2022-10-30T07:13:43.317Z,2.23
2022-10-30T07:16:30.924Z,2.00
2022-10-30T07:19:00.677Z,2.17
2022-10-30T07:21:32.798Z,2.80
2022-10-30T07:24:02.205Z,2.50
2022-10-30T07:26:44.801Z,2.23
2022-10-30T07:29:29.092Z,1.97
2022-10-30T07:32:12.834Z,2.13
2022-10-30T07:34:49.940Z,2.33
2022-10-30T07:37:26.516Z,2.27
2022-10-30T07:40:00.752Z,2.00
2022-10-30T07:43:18.014Z,2.50
2022-10-30T07:45:59.083Z,1.97
2022-10-30T07:48:58.654Z,1.87
2022-10-30T07:51:39.651Z,2.60
2022-10-30T07:54:07.116Z,2.20
2022-10-30T07:56:44.698Z,3.80
2022-10-30T08:02:25.015Z,2.83
2022-10-30T08:05:14.935Z,2.27
2022-10-30T08:08:07.514Z,2.00
2022-10-30T08:10:38.136Z,1.77
2022-10-30T08:13:06.032Z,2.27
2022-10-30T08:15:34.496Z,2.33
2022-10-30T08:18:10.489Z,2.53
2022-10-30T08:20:41.143Z,2.10
2022-10-30T08:23:09.854Z,2.50
2022-10-30T08:25:37.414Z,2.77
2022-10-30T08:28:07.069Z,2.40
2022-10-30T08:30:42.253Z,1.87
2022-10-30T08:33:15.879Z,2.60
2022-10-30T08:36:02.371Z,2.67
2022-10-30T08:38:30.259Z,1.93
2022-10-30T08:41:28.051Z,2.27
2022-10-30T08:43:58.215Z,2.20
2022-10-30T08:46:31.083Z,2.90
2022-10-30T08:48:59.052Z,2.60
2022-10-30T08:51:28.878Z,2.43
2022-10-30T08:53:56.677Z,3.17
2022-10-30T08:56:24.272Z,2.37
2022-10-30T08:59:03.901Z,2.93
2022-10-30T09:01:32.219Z,2.43
2022-10-30T09:04:18.633Z,3.10
2022-10-30T09:06:51.833Z,3.47
2022-10-30T09:09:49.735Z,2.67
2022-10-30T09:12:17.520Z,3.60
2022-10-30T09:14:46.767Z,2.63
2022-10-30T09:17:14.487Z,3.00
2022-10-30T09:19:45.279Z,3.13
2022-10-30T09:22:18.543Z,2.53
2022-10-30T09:24:46.506Z,3.00
2022-10-30T09:27:34.643Z,2.37
2022-10-30T09:30:06.041Z,3.20
2022-10-30T09:32:37.554Z,2.70
2022-10-30T09:35:10.636Z,3.30
2022-10-30T09:37:42.218Z,2.77
2022-10-30T09:40:25.573Z,2.87
2022-10-30T09:42:55.268Z,2.57
2022-10-30T09:45:35.025Z,2.87
2022-10-30T09:48:21.500Z,3.27
2022-10-30T09:51:19.971Z,3.43
2022-10-30T09:53:55.284Z,3.00
2022-10-30T09:56:32.062Z,2.60
2022-10-30T09:59:04.972Z,3.10
2022-10-30T10:01:45.435Z,3.17
2022-10-30T10:04:25.549Z,2.87
2022-10-30T10:07:32.777Z,2.67
2022-10-30T10:10:16.961Z,2.20
2022-10-30T10:13:00.186Z,2.87
2022-10-30T10:15:41.735Z,2.70
2022-10-30T10:18:19.290Z,2.67
2022-10-30T10:20:48.838Z,3.00
2022-10-30T10:23:23.682Z,2.90
2022-10-30T10:25:57.609Z,2.93
2022-10-30T10:28:38.928Z,2.50
2022-10-30T10:31:21.799Z,3.07
2022-10-30T10:33:51.245Z,2.73
2022-10-30T10:36:21.272Z,2.80
2022-10-30T10:38:58.020Z,3.33
2022-10-30T10:41:46.657Z,2.73
2022-10-30T10:44:29.887Z,3.00
2022-10-30T10:47:07.545Z,3.10
2022-10-30T10:49:41.296Z,3.00
2022-10-30T10:52:38.373Z,3.13
2022-10-30T10:55:13.882Z,2.97
2022-10-30T10:57:44.383Z,2.87
2022-10-30T11:00:12.379Z,3.27
2022-10-30T11:02:40.206Z,3.20
2022-10-30T11:05:09.350Z,2.67
2022-10-30T11:07:40.832Z,3.00
2022-10-30T11:10:15.196Z,2.50
2022-10-30T11:12:43.470Z,3.20
2022-10-30T11:15:28.239Z,2.63
2022-10-30T11:18:03.202Z,2.07
2022-10-30T11:20:34.317Z,2.37
2022-10-30T11:23:01.856Z,3.30
2022-10-30T11:25:37.609Z,2.50
2022-10-30T11:28:08.591Z,2.40
2022-10-30T11:30:38.056Z,2.73
2022-10-30T11:33:22.159Z,2.80
2022-10-30T11:35:49.462Z,2.90
2022-10-30T11:38:21.311Z,2.67
2022-10-30T11:40:53.377Z,3.00
2022-10-30T11:43:26.208Z,2.90
2022-10-30T11:45:54.099Z,2.73
2022-10-30T11:48:27.317Z,2.73
2022-10-30T11:50:58.089Z,3.27
2022-10-30T11:53:31.165Z,2.67
2022-10-30T11:55:59.377Z,2.90
2022-10-30T11:58:31.453Z,2.80
2022-10-30T12:01:12.942Z,2.57
2022-10-30T12:03:41.276Z,2.87
2022-10-30T12:06:18.046Z,2.87
2022-10-30T12:09:03.987Z,2.73
2022-10-30T12:11:35.448Z,2.40
2022-10-30T12:14:03.084Z,2.50
2022-10-30T12:16:30.947Z,2.20
2022-10-30T12:19:06.570Z,2.50
2022-10-30T12:21:41.820Z,2.77
2022-10-30T12:24:15.460Z,2.93
2022-10-30T12:26:51.174Z,2.73
2022-10-30T12:29:36.484Z,2.97
2022-10-30T12:32:21.287Z,2.60
2022-10-30T12:34:58.379Z,2.70
2022-10-30T12:37:31.753Z,2.67
2022-10-30T12:40:03.556Z,2.57
2022-10-30T12:42:37.312Z,2.57
2022-10-30T12:45:04.627Z,2.87
2022-10-30T12:47:40.016Z,2.33
2022-10-30T12:50:15.317Z,2.87
2022-10-30T12:52:47.263Z,3.00
2022-10-30T12:55:32.599Z,2.50
2022-10-30T12:58:19.748Z,2.10
2022-10-30T13:00:56.531Z,2.50
2022-10-30T13:03:30.235Z,2.63
2022-10-30T13:06:02.399Z,2.60
2022-10-30T13:08:35.481Z,2.33
2022-10-30T13:11:06.130Z,2.23
2022-10-30T13:13:37.558Z,2.90
2022-10-30T13:16:12.822Z,2.50
2022-10-30T13:18:42.591Z,2.10
2022-10-30T13:21:11.674Z,2.50
2022-10-30T13:24:01.301Z,2.70
2022-10-30T13:26:34.069Z,2.53
2022-10-30T13:29:06.850Z,2.80
2022-10-30T13:31:42.591Z,2.13
2022-10-30T13:34:25.017Z,2.80
2022-10-30T13:36:59.495Z,2.43
2022-10-30T13:39:36.275Z,2.93
2022-10-30T13:42:03.865Z,2.37
2022-10-30T13:44:38.700Z,2.37
2022-10-30T13:47:06.029Z,2.80
2022-10-30T13:49:33.375Z,2.37
2022-10-30T13:52:00.956Z,2.57
2022-10-30T13:54:34.004Z,2.50
2022-10-30T13:57:04.382Z,3.30
2022-10-30T13:59:34.909Z,3.07
2022-10-30T14:02:19.895Z,2.03
2022-10-30T14:05:01.870Z,2.37
2022-10-30T14:07:32.218Z,2.07
2022-10-30T14:10:08.784Z,2.73
2022-10-30T14:12:53.865Z,2.37
2022-10-30T14:15:21.266Z,2.33
2022-10-30T14:18:12.087Z,2.30
2022-10-30T14:20:42.627Z,2.17
2022-10-30T14:23:21.084Z,2.33
2022-10-30T14:26:03.134Z,2.53
2022-10-30T14:28:35.710Z,2.10
2022-10-30T14:31:03.683Z,2.30
2022-10-30T14:33:35.198Z,2.43
2022-10-30T14:36:18.280Z,2.00
2022-10-30T14:39:00.174Z,2.10
2022-10-30T14:41:53.181Z,2.27
2022-10-30T14:44:26.852Z,2.40
2022-10-30T14:47:15.029Z,2.33
2022-10-30T14:49:45.657Z,2.13
2022-10-30T14:52:18.701Z,2.30
2022-10-30T14:54:57.576Z,2.13
2022-10-30T14:57:45.981Z,2.50
2022-10-30T15:00:25.909Z,2.13
2022-10-30T15:03:12.176Z,2.57
2022-10-30T15:05:50.756Z,2.63
2022-10-30T15:08:27.698Z,2.33
2022-10-30T15:11:07.304Z,1.83
2022-10-30T15:13:34.757Z,2.10
2022-10-30T15:16:03.718Z,2.43
2022-10-30T15:18:39.160Z,2.10
2022-10-30T15:21:07.897Z,2.57
2022-10-30T15:23:37.356Z,2.07
2022-10-30T15:26:10.086Z,2.23
2022-10-30T15:28:41.201Z,2.20
2022-10-30T15:31:21.767Z,1.70
2022-10-30T15:34:01.480Z,2.27
2022-10-30T15:36:30.825Z,2.23
2022-10-30T15:39:13.879Z,1.97
2022-10-30T15:41:48.653Z,2.10
2022-10-30T15:44:18.665Z,2.00
2022-10-30T15:46:51.434Z,1.90
2022-10-30T15:49:29.606Z,2.07
2022-10-30T15:51:57.522Z,1.77
2022-10-30T15:54:28.207Z,2.07
2022-10-30T15:57:36.545Z,1.93
2022-10-30T15:59:50.779Z,2.03
2022-10-30T16:02:22.641Z,2.07
2022-10-30T16:04:52.538Z,1.93
2022-10-30T16:07:27.061Z,1.70
2022-10-30T16:09:58.108Z,1.97
2022-10-30T16:12:28.885Z,1.70
2022-10-30T16:14:59.353Z,1.87
2022-10-30T16:17:27.676Z,1.83
2022-10-30T16:20:03.056Z,2.20
2022-10-30T16:22:35.060Z,1.50
2022-10-30T16:25:03.012Z,1.97
2022-10-30T16:27:30.533Z,1.90
2022-10-30T16:30:01.216Z,2.07
2022-10-30T16:32:31.237Z,1.73
2022-10-30T16:34:59.224Z,2.00
2022-10-30T16:37:29.156Z,1.57
2022-10-30T16:39:56.764Z,1.87
2022-10-30T16:42:25.542Z,2.27
2022-10-30T16:45:06.356Z,2.30
2022-10-30T16:47:36.322Z,2.23
2022-10-30T16:50:05.609Z,1.50
2022-10-30T16:52:37.765Z,2.13
2022-10-30T16:55:16.686Z,2.00
2022-10-30T16:57:44.977Z,1.60
2022-10-30T17:00:19.344Z,1.60
2022-10-30T17:02:48.153Z,2.10
2022-10-30T17:05:18.694Z,2.10
2022-10-30T17:07:59.048Z,1.83
2022-10-30T17:10:34.042Z,1.60
2022-10-30T17:13:20.469Z,1.90
2022-10-30T17:15:47.877Z,2.00
2022-10-30T17:18:20.591Z,1.80
2022-10-30T17:21:05.759Z,1.87
2022-10-30T17:23:33.169Z,2.00
2022-10-30T17:26:08.134Z,2.10
2022-10-30T17:28:36.438Z,1.80
2022-10-30T17:31:19.246Z,1.93
2022-10-30T17:34:05.334Z,2.00
2022-10-30T17:36:32.751Z,1.67
2022-10-30T17:39:00.203Z,1.80
2022-10-30T17:41:27.628Z,1.67
2022-10-30T17:43:56.062Z,1.57
2022-10-30T17:46:24.273Z,2.27
2022-10-30T17:48:51.695Z,2.10
2022-10-30T17:51:19.483Z,2.20
2022-10-30T17:53:48.717Z,1.87
2022-10-30T17:56:16.367Z,1.60
2022-10-30T17:58:44.059Z,2.00
2022-10-30T18:01:19.342Z,2.30
2022-10-30T18:03:50.109Z,2.10
2022-10-30T18:06:19.144Z,2.03
2022-10-30T18:08:50.561Z,1.90
2022-10-30T18:11:22.816Z,1.87
2022-10-30T18:13:50.808Z,1.60
2022-10-30T18:16:19.142Z,2.10
2022-10-30T18:18:46.974Z,2.00
2022-10-30T18:21:15.472Z,1.67
2022-10-30T18:23:58.495Z,1.73
2022-10-30T18:26:26.736Z,1.63
2022-10-30T18:28:54.588Z,1.57
2022-10-30T18:31:23.437Z,1.73
2022-10-30T18:33:52.317Z,1.20
2022-10-30T18:36:24.001Z,1.73
2022-10-30T18:38:52.686Z,1.40
2022-10-30T18:41:25.668Z,2.00
2022-10-30T18:43:53.084Z,1.27
2022-10-30T18:46:20.502Z,1.57
2022-10-30T18:48:47.912Z,1.57
2022-10-30T18:51:19.589Z,1.30
2022-10-30T18:53:53.645Z,1.13
2022-10-30T18:56:22.232Z,1.17
2022-10-30T18:58:50.384Z,1.40
2022-10-30T19:01:20.292Z,1.00
2022-10-30T19:03:47.880Z,1.03
2022-10-30T19:06:17.597Z,1.00
2022-10-30T19:08:45.215Z,1.43
2022-10-30T19:11:13.650Z,1.30
2022-10-30T19:13:41.522Z,1.23
2022-10-30T19:16:15.473Z,1.30
2022-10-30T19:18:43.418Z,1.10
2022-10-30T19:21:18.399Z,1.10
2022-10-30T19:23:48.110Z,1.10
2022-10-30T19:26:17.279Z,1.20
2022-10-30T19:28:45.163Z,0.90
2022-10-30T19:31:14.635Z,1.20
2022-10-30T19:33:42.466Z,1.20
2022-10-30T19:36:28.264Z,1.10
2022-10-30T19:38:56.144Z,1.43
2022-10-30T19:41:24.945Z,1.00
2022-10-30T19:43:52.853Z,1.00
2022-10-30T19:46:20.363Z,1.07
2022-10-30T19:49:02.846Z,0.90
2022-10-30T19:51:30.235Z,1.10
2022-10-30T19:53:57.560Z,1.10
2022-10-30T19:56:24.990Z,1.10
2022-10-30T19:58:52.431Z,0.90
2022-10-30T20:01:19.894Z,0.87
2022-10-30T20:03:47.441Z,1.07
2022-10-30T20:06:15.288Z,1.20
2022-10-30T20:08:42.950Z,1.00
2022-10-30T20:11:10.297Z,0.80
2022-10-30T20:13:37.778Z,1.00
2022-10-30T20:16:05.915Z,0.87
2022-10-30T20:18:35.016Z,0.90
2022-10-30T20:21:03.917Z,1.20
2022-10-30T20:23:31.296Z,1.03
2022-10-30T20:26:00.678Z,1.00
2022-10-30T20:28:33.729Z,0.90
2022-10-30T20:31:01.067Z,0.97
2022-10-30T20:33:28.460Z,1.00
2022-10-30T20:35:55.961Z,1.13
2022-10-30T20:38:29.028Z,0.90
2022-10-30T20:40:57.119Z,1.03
2022-10-30T20:43:34.967Z,1.43
2022-10-30T20:46:02.812Z,1.07
2022-10-30T20:48:30.223Z,1.03
2022-10-30T20:50:57.908Z,0.90
2022-10-30T20:53:25.231Z,1.10
2022-10-30T20:55:52.684Z,1.00
2022-10-30T20:58:20.079Z,0.93
2022-10-30T21:00:47.582Z,0.90
2022-10-30T21:03:15.529Z,0.90
2022-10-30T21:05:45.162Z,0.80
2022-10-30T21:08:13.612Z,1.10
2022-10-30T21:10:41.493Z,1.00
2022-10-30T21:13:10.255Z,1.00
2022-10-30T21:15:40.201Z,0.90
2022-10-30T21:18:07.845Z,1.00
2022-10-30T21:20:36.625Z,0.77
2022-10-30T21:23:04.461Z,1.10
2022-10-30T21:25:32.472Z,1.00
2022-10-30T21:28:00.421Z,0.80
2022-10-30T21:30:28.262Z,1.03
2022-10-30T21:32:55.798Z,1.10
2022-10-30T21:35:23.084Z,0.80
2022-10-30T21:37:50.422Z,1.10
2022-10-30T21:40:17.795Z,0.97
2022-10-30T21:42:47.906Z,0.97
2022-10-30T21:45:15.352Z,1.00
2022-10-30T21:47:42.838Z,1.03
2022-10-30T21:50:12.535Z,0.90
2022-10-30T21:52:40.857Z,0.80
2022-10-30T21:55:08.905Z,1.00
2022-10-30T21:57:36.813Z,0.90
2022-10-30T22:00:06.110Z,0.93
2022-10-30T22:02:35.785Z,0.80
2022-10-30T22:05:03.205Z,1.13
2022-10-30T22:07:30.554Z,0.97
2022-10-30T22:09:57.930Z,0.90
2022-10-30T22:12:25.334Z,1.10
2022-10-30T22:14:52.701Z,1.00
2022-10-30T22:17:20.134Z,0.90
2022-10-30T22:19:47.455Z,1.00
2022-10-30T22:22:14.895Z,1.00
2022-10-30T22:24:42.225Z,1.30
2022-10-30T22:27:09.596Z,0.90
2022-10-30T22:29:36.950Z,1.10
2022-10-30T22:32:04.309Z,1.03
2022-10-30T22:34:31.605Z,0.90
2022-10-30T22:36:58.927Z,1.17
2022-10-30T22:39:26.902Z,1.17
2022-10-30T22:41:54.200Z,1.00
2022-10-30T22:44:23.086Z,0.90
2022-10-30T22:46:50.487Z,1.07
2022-10-30T22:49:17.830Z,1.00
2022-10-30T22:51:45.343Z,1.03
2022-10-30T22:54:12.819Z,1.00
2022-10-30T22:56:40.410Z,1.10
2022-10-30T22:59:11.006Z,0.90
2022-10-30T23:01:39.292Z,0.83
2022-10-30T23:04:07.805Z,1.07
2022-10-30T23:06:35.973Z,1.10
2022-10-30T23:09:05.980Z,1.20
2022-10-30T23:11:33.333Z,1.10
2022-10-30T23:14:00.716Z,1.00
2022-10-30T23:16:28.006Z,0.93
2022-10-30T23:18:56.206Z,1.10
2022-10-30T23:21:24.467Z,1.40
2022-10-30T23:23:52.072Z,1.30
2022-10-30T23:26:21.123Z,1.40
2022-10-30T23:28:49.242Z,1.00
2022-10-30T23:31:21.358Z,1.27
2022-10-30T23:33:49.332Z,1.20
2022-10-30T23:36:17.103Z,1.20
2022-10-30T23:38:44.475Z,1.33
2022-10-30T23:41:11.794Z,1.17
2022-10-30T23:43:39.079Z,1.40
2022-10-30T23:46:06.615Z,1.30
2022-10-30T23:48:33.926Z,1.40
2022-10-30T23:51:06.597Z,1.00
2022-10-30T23:53:33.920Z,1.20
2022-10-30T23:56:01.596Z,1.17
2022-10-30T23:58:28.945Z,1.03
